createdAt,value
2022-10-15T00:02:15.937Z,8.87
2022-10-15T00:04:43.016Z,8.50
2022-10-15T00:07:10.175Z,9.27
2022-10-15T00:09:37.245Z,8.57
2022-10-15T00:12:04.502Z,8.90
2022-10-15T00:14:31.646Z,8.37
2022-10-15T00:16:58.711Z,8.03
2022-10-15T00:19:25.811Z,9.10
2022-10-15T00:21:52.947Z,8.60
2022-10-15T00:24:20.163Z,9.43
2022-10-15T00:26:47.230Z,8.20
2022-10-15T00:29:14.448Z,9.70
2022-10-15T00:31:41.523Z,9.97
2022-10-15T00:34:08.618Z,9.60
2022-10-15T00:36:36.852Z,9.67
2022-10-15T00:39:05.842Z,9.57
2022-10-15T00:41:37.666Z,10.30
2022-10-15T00:44:22.908Z,10.90
2022-10-15T00:46:50.920Z,9.97
2022-10-15T00:49:24.666Z,9.77
2022-10-15T00:52:06.447Z,10.63
2022-10-15T00:54:35.212Z,11.07
2022-10-15T00:57:02.386Z,11.30
2022-10-15T00:59:30.091Z,11.07
2022-10-15T01:01:57.178Z,11.10
2022-10-15T01:04:24.385Z,12.60
2022-10-15T01:06:51.468Z,13.00
2022-10-15T01:09:18.614Z,12.83
2022-10-15T01:11:47.421Z,13.37
2022-10-15T01:14:26.357Z,13.27
2022-10-15T01:17:13.711Z,14.43
2022-10-15T01:19:40.771Z,14.00
2022-10-15T01:22:30.759Z,14.97
2022-10-15T01:25:04.252Z,14.53
2022-10-15T01:27:48.789Z,14.40
2022-10-15T01:30:15.971Z,16.10
2022-10-15T01:32:49.024Z,17.40
2022-10-15T01:35:23.141Z,16.33
2022-10-15T01:37:54.940Z,16.03
2022-10-15T01:40:25.820Z,16.83
2022-10-15T01:43:00.174Z,16.73
2022-10-15T01:45:35.952Z,17.00
2022-10-15T01:48:05.398Z,16.90
2022-10-15T01:50:33.923Z,16.60
2022-10-15T01:53:01.506Z,17.17
2022-10-15T01:55:29.054Z,18.13
2022-10-15T01:57:56.859Z,18.23
2022-10-15T02:00:24.010Z,17.83
2022-10-15T02:02:51.095Z,18.10
2022-10-15T02:05:20.609Z,19.13
2022-10-15T02:07:56.998Z,17.97
2022-10-15T02:10:28.977Z,18.93
2022-10-15T02:13:16.303Z,19.23
2022-10-15T02:15:58.218Z,18.80
2022-10-15T02:18:29.738Z,20.13
2022-10-15T02:21:00.421Z,19.97
2022-10-15T02:23:29.091Z,20.53
2022-10-15T02:25:57.411Z,19.93
2022-10-15T02:28:25.759Z,20.23
2022-10-15T02:30:53.355Z,20.00
2022-10-15T02:33:21.329Z,21.30
2022-10-15T02:35:49.261Z,20.17
2022-10-15T02:38:18.286Z,20.10
2022-10-15T02:40:46.259Z,20.03
2022-10-15T02:43:14.172Z,21.00
2022-10-15T02:45:41.675Z,22.07
2022-10-15T02:48:08.941Z,22.13
2022-10-15T02:50:36.015Z,22.00
2022-10-15T02:53:03.211Z,21.60
2022-10-15T02:55:30.355Z,21.40
2022-10-15T02:57:57.512Z,20.73
2022-10-15T03:00:24.817Z,22.57
2022-10-15T03:02:51.919Z,20.83
2022-10-15T03:05:19.309Z,22.17
2022-10-15T03:07:46.398Z,21.53
2022-10-15T03:10:13.536Z,21.97
2022-10-15T03:12:40.600Z,22.03
2022-10-15T03:15:08.371Z,21.63
2022-10-15T03:17:35.480Z,22.10
2022-10-15T03:20:02.576Z,22.07
2022-10-15T03:22:29.699Z,22.23
2022-10-15T03:24:56.790Z,21.80
2022-10-15T03:27:24.187Z,20.77
2022-10-15T03:29:51.503Z,20.33
2022-10-15T03:32:18.589Z,21.70
2022-10-15T03:34:45.687Z,21.87
2022-10-15T03:37:12.860Z,21.20
2022-10-15T03:39:40.007Z,20.77
2022-10-15T03:42:07.073Z,21.60
2022-10-15T03:44:34.939Z,22.83
2022-10-15T03:47:02.063Z,22.93
2022-10-15T03:49:29.134Z,22.17
2022-10-15T03:51:56.278Z,20.43
2022-10-15T03:54:23.361Z,21.67
2022-10-15T03:56:50.515Z,20.53
2022-10-15T03:59:17.583Z,22.57
2022-10-15T04:01:44.953Z,22.90
2022-10-15T04:04:12.914Z,22.70
2022-10-15T04:06:40.483Z,21.70
2022-10-15T04:09:07.573Z,21.50
2022-10-15T04:11:34.652Z,20.70
2022-10-15T04:14:01.957Z,21.03
2022-10-15T04:16:29.026Z,20.07
2022-10-15T04:18:57.691Z,18.10
2022-10-15T04:21:25.508Z,19.03
2022-10-15T04:23:52.590Z,18.50
2022-10-15T04:26:19.670Z,17.70
2022-10-15T04:28:48.664Z,18.07
2022-10-15T04:31:15.851Z,17.13
2022-10-15T04:33:43.014Z,15.87
2022-10-15T04:36:13.988Z,16.00
2022-10-15T04:38:41.526Z,13.97
2022-10-15T04:41:10.104Z,11.20
2022-10-15T04:43:37.712Z,12.73
2022-10-15T04:46:05.925Z,12.27
2022-10-15T04:48:36.597Z,13.00
2022-10-15T04:51:06.131Z,12.33
2022-10-15T04:53:33.547Z,13.43
2022-10-15T04:56:07.979Z,13.20
2022-10-15T04:58:36.041Z,14.47
2022-10-15T05:01:04.130Z,14.67
2022-10-15T05:06:02.797Z,13.90
2022-10-15T05:08:33.607Z,13.40
2022-10-15T05:11:01.940Z,12.37
2022-10-15T05:13:29.163Z,12.83
2022-10-15T05:15:56.263Z,14.33
2022-10-15T05:18:23.371Z,15.63
2022-10-15T05:20:50.516Z,19.43
2022-10-15T05:23:17.659Z,19.20
2022-10-15T05:25:44.736Z,19.67
2022-10-15T05:28:11.828Z,21.90
2022-10-15T05:30:38.892Z,23.30
2022-10-15T05:33:06.148Z,21.53
2022-10-15T05:35:33.259Z,23.77
2022-10-15T05:38:00.376Z,24.70
2022-10-15T05:40:27.520Z,27.03
2022-10-15T05:45:26.581Z,26.53
2022-10-15T05:47:56.677Z,27.30
2022-10-15T05:50:24.222Z,26.77
2022-10-15T05:52:51.273Z,25.27
2022-10-15T05:55:18.347Z,24.63
2022-10-15T05:57:45.413Z,25.60
2022-10-15T06:00:12.818Z,24.07
2022-10-15T06:02:40.455Z,23.00
2022-10-15T06:05:07.852Z,22.03
2022-10-15T06:07:34.990Z,25.07
2022-10-15T06:10:02.149Z,23.90
2022-10-15T06:12:29.294Z,24.63
2022-10-15T06:14:56.373Z,23.90
2022-10-15T06:17:23.544Z,23.07
2022-10-15T06:19:50.827Z,24.43
2022-10-15T06:22:18.175Z,24.07
2022-10-15T06:24:45.303Z,24.80
2022-10-15T06:27:13.872Z,25.40
2022-10-15T06:29:41.179Z,24.13
2022-10-15T06:32:12.014Z,25.90
2022-10-15T06:34:39.083Z,23.70
2022-10-15T06:37:06.151Z,24.77
2022-10-15T06:39:33.324Z,23.00
2022-10-15T06:42:00.387Z,22.23
2022-10-15T06:44:27.488Z,23.97
2022-10-15T06:46:54.563Z,23.57
2022-10-15T06:49:21.634Z,24.40
2022-10-15T06:51:48.778Z,23.53
2022-10-15T06:54:16.610Z,27.27
2022-10-15T06:56:43.743Z,23.97
2022-10-15T06:59:10.883Z,23.70
2022-10-15T07:01:41.364Z,23.53
2022-10-15T07:04:09.471Z,23.27
2022-10-15T07:06:36.680Z,21.80
2022-10-15T07:09:04.253Z,21.17
2022-10-15T07:11:31.422Z,19.60
2022-10-15T07:13:58.554Z,21.33
2022-10-15T07:16:26.096Z,17.90
2022-10-15T07:18:53.220Z,16.57
2022-10-15T07:21:20.330Z,15.70
2022-10-15T07:23:47.437Z,16.87
2022-10-15T07:26:14.719Z,14.40
2022-10-15T07:28:41.878Z,15.10
2022-10-15T07:31:09.099Z,14.87
2022-10-15T07:33:36.432Z,13.77
2022-10-15T07:36:07.749Z,12.80
2022-10-15T07:38:35.173Z,13.80
2022-10-15T07:41:03.224Z,13.03
2022-10-15T07:43:30.509Z,12.57
2022-10-15T07:45:57.626Z,12.57
2022-10-15T07:48:25.209Z,12.67
2022-10-15T07:50:59.043Z,11.77
2022-10-15T07:53:26.373Z,11.17
2022-10-15T07:55:53.468Z,11.83
2022-10-15T07:58:20.592Z,11.97
2022-10-15T08:00:47.684Z,11.63
2022-10-15T08:03:14.806Z,11.60
2022-10-15T08:05:41.962Z,11.40
2022-10-15T08:08:09.033Z,11.57
2022-10-15T08:10:36.873Z,11.63
2022-10-15T08:13:04.049Z,11.73
2022-10-15T08:15:31.159Z,11.30
2022-10-15T08:17:59.894Z,10.87
2022-10-15T08:20:26.981Z,10.67
2022-10-15T08:22:54.056Z,10.80
2022-10-15T08:25:21.166Z,11.13
2022-10-15T08:27:48.244Z,10.30
2022-10-15T08:30:15.389Z,9.33
2022-10-15T08:32:42.477Z,9.63
2022-10-15T08:35:09.658Z,9.00
2022-10-15T08:37:36.755Z,8.90
2022-10-15T08:40:04.457Z,9.50
2022-10-15T08:42:38.286Z,9.00
2022-10-15T08:45:07.994Z,8.80
2022-10-15T08:47:37.467Z,9.40
2022-10-15T08:50:13.087Z,8.73
2022-10-15T08:52:45.486Z,8.93
2022-10-15T08:55:14.157Z,8.93
2022-10-15T08:57:53.427Z,9.27
2022-10-15T09:00:24.862Z,9.00
2022-10-15T09:02:51.960Z,7.40
2022-10-15T09:05:22.240Z,8.40
2022-10-15T09:07:54.610Z,8.23
2022-10-15T09:10:32.708Z,6.53
2022-10-15T09:13:06.323Z,5.97
2022-10-15T09:15:34.812Z,5.17
2022-10-15T09:18:01.894Z,5.40
2022-10-15T09:20:34.144Z,4.70
2022-10-15T09:23:01.555Z,3.10
2022-10-15T09:25:35.802Z,2.70
2022-10-15T09:28:09.127Z,3.13
2022-10-15T09:30:48.862Z,3.63
2022-10-15T09:33:27.603Z,3.87
2022-10-15T09:35:57.596Z,4.73
2022-10-15T09:38:43.480Z,4.67
2022-10-15T09:41:22.826Z,4.87
2022-10-15T09:43:52.108Z,5.03
2022-10-15T09:46:19.201Z,4.40
2022-10-15T09:48:53.033Z,4.37
2022-10-15T09:51:30.524Z,4.40
2022-10-15T09:53:57.653Z,4.93
2022-10-15T09:56:27.121Z,4.90
2022-10-15T09:58:55.455Z,4.33
2022-10-15T10:01:33.250Z,4.57
2022-10-15T10:04:12.327Z,4.93
2022-10-15T10:06:45.320Z,4.90
2022-10-15T10:09:17.577Z,5.30
2022-10-15T10:11:53.807Z,4.60
2022-10-15T10:14:26.228Z,3.87
2022-10-15T10:17:12.324Z,3.17
2022-10-15T10:19:39.480Z,3.03
2022-10-15T10:22:15.599Z,2.63
2022-10-15T10:24:42.706Z,2.50
2022-10-15T10:27:21.052Z,2.60
2022-10-15T10:29:54.071Z,2.60
2022-10-15T10:32:24.037Z,2.00
2022-10-15T10:34:52.872Z,2.50
2022-10-15T10:37:20.609Z,2.70
2022-10-15T10:39:52.727Z,2.70
2022-10-15T10:42:20.083Z,2.40
2022-10-15T10:44:47.242Z,2.10
2022-10-15T10:47:14.308Z,2.40
2022-10-15T10:49:54.802Z,2.40
2022-10-15T10:52:24.022Z,2.30
2022-10-15T10:55:14.173Z,2.20
2022-10-15T10:57:41.256Z,2.07
2022-10-15T11:00:09.417Z,2.30
2022-10-15T11:02:41.413Z,2.20
2022-10-15T11:05:08.749Z,1.93
2022-10-15T11:07:56.183Z,2.15
2022-10-15T11:10:26.481Z,2.17
2022-10-15T11:13:12.575Z,2.38
2022-10-15T11:15:45.636Z,2.30
2022-10-15T11:18:25.089Z,2.25
2022-10-15T11:21:00.791Z,2.20
2022-10-15T11:24:01.112Z,2.42
2022-10-15T11:26:59.069Z,2.30
2022-10-15T11:29:49.551Z,2.20
2022-10-15T11:32:17.043Z,1.80
2022-10-15T11:34:59.705Z,1.90
2022-10-15T11:37:35.551Z,1.50
2022-10-15T11:40:20.565Z,1.80
2022-10-15T11:42:50.517Z,1.88
2022-10-15T11:45:36.063Z,1.85
2022-10-15T11:48:07.149Z,1.65
2022-10-15T11:50:37.274Z,1.85
2022-10-15T11:53:12.810Z,1.70
2022-10-15T11:55:39.975Z,1.75
2022-10-15T11:58:12.777Z,1.73
2022-10-15T12:00:41.581Z,1.70
2022-10-15T12:03:15.006Z,1.90
2022-10-15T12:05:47.654Z,1.70
2022-10-15T12:08:15.229Z,1.90
2022-10-15T12:10:54.389Z,1.92
2022-10-15T12:13:33.195Z,1.80
2022-10-15T12:16:09.344Z,2.28
2022-10-15T12:18:36.410Z,1.88
2022-10-15T12:21:03.539Z,2.00
2022-10-15T12:23:41.450Z,1.90
2022-10-15T12:26:26.704Z,1.90
2022-10-15T12:28:56.557Z,2.10
2022-10-15T12:31:25.410Z,1.70
2022-10-15T12:33:53.477Z,1.50
2022-10-15T12:36:20.623Z,1.70
2022-10-15T12:39:07.840Z,1.65
2022-10-15T12:41:44.365Z,1.38
2022-10-15T12:46:59.116Z,1.70
2022-10-15T12:49:30.923Z,1.90
2022-10-15T12:51:59.203Z,2.10
2022-10-15T12:54:42.483Z,1.90
2022-10-15T12:57:28.325Z,2.22
2022-10-15T12:59:58.074Z,2.20
2022-10-15T13:02:37.303Z,2.40
2022-10-15T13:05:06.254Z,2.85
2022-10-15T13:07:35.593Z,2.80
2022-10-15T13:10:04.612Z,3.20
2022-10-15T13:12:32.629Z,3.10
2022-10-15T13:15:07.147Z,3.00
2022-10-15T13:17:34.323Z,3.33
2022-10-15T13:20:04.650Z,3.77
2022-10-15T13:22:33.480Z,3.67
2022-10-15T13:25:00.699Z,3.50
2022-10-15T13:27:27.756Z,3.80
2022-10-15T13:29:56.211Z,3.60
2022-10-15T13:32:24.091Z,3.37
2022-10-15T13:34:51.452Z,3.63
2022-10-15T13:37:20.656Z,3.47
2022-10-15T13:39:51.035Z,3.90
2022-10-15T13:42:19.177Z,4.43
2022-10-15T13:44:57.291Z,4.30
2022-10-15T13:47:26.089Z,4.07
2022-10-15T13:50:10.931Z,4.03
2022-10-15T13:52:45.264Z,3.63
2022-10-15T13:55:19.956Z,4.17
2022-10-15T13:57:48.018Z,5.10
2022-10-15T14:00:26.433Z,4.97
2022-10-15T14:03:12.132Z,4.70
2022-10-15T14:05:39.462Z,4.13
2022-10-15T14:08:06.628Z,4.30
2022-10-15T14:10:33.730Z,4.20
2022-10-15T14:13:00.848Z,4.10
2022-10-15T14:15:44.112Z,4.00
2022-10-15T14:18:13.382Z,3.73
2022-10-15T14:20:44.844Z,4.07
2022-10-15T14:23:17.146Z,3.90
2022-10-15T14:25:44.323Z,3.93
2022-10-15T14:28:21.778Z,3.53
2022-10-15T14:30:49.151Z,3.60
2022-10-15T14:33:35.160Z,3.70
2022-10-15T14:36:11.688Z,3.33
2022-10-15T14:38:38.939Z,3.27
2022-10-15T14:41:09.264Z,3.33
2022-10-15T14:43:37.163Z,3.70
2022-10-15T14:46:06.111Z,3.87
2022-10-15T14:48:34.943Z,3.70
2022-10-15T14:51:04.765Z,3.73
2022-10-15T14:53:36.783Z,3.30
2022-10-15T14:56:07.121Z,3.30
2022-10-15T14:58:34.778Z,3.33
2022-10-15T15:01:03.491Z,3.57
2022-10-15T15:03:38.814Z,3.90
2022-10-15T15:06:06.172Z,3.90
2022-10-15T15:08:33.359Z,4.40
2022-10-15T15:11:01.909Z,4.20
2022-10-15T15:13:30.057Z,4.50
2022-10-15T15:15:57.174Z,4.40
2022-10-15T15:18:24.570Z,4.67
2022-10-15T15:20:52.070Z,4.63
2022-10-15T15:23:23.757Z,4.57
2022-10-15T15:25:51.478Z,4.70
2022-10-15T15:28:22.818Z,4.73
2022-10-15T15:31:05.307Z,5.20
2022-10-15T15:33:32.836Z,5.00
2022-10-15T15:36:02.110Z,5.40
2022-10-15T15:38:32.111Z,5.30
2022-10-15T15:41:03.951Z,5.23
2022-10-15T15:43:31.339Z,5.40
2022-10-15T15:45:58.467Z,5.97
2022-10-15T15:48:25.601Z,5.40
2022-10-15T15:50:52.857Z,5.13
2022-10-15T15:53:20.146Z,5.17
2022-10-15T15:55:47.301Z,6.07
2022-10-15T15:58:14.368Z,5.60
2022-10-15T16:00:41.447Z,6.23
2022-10-15T16:03:09.575Z,6.17
2022-10-15T16:05:38.516Z,6.40
2022-10-15T16:08:05.711Z,6.13
2022-10-15T16:10:32.878Z,6.67
2022-10-15T16:12:59.947Z,6.30
2022-10-15T16:15:27.011Z,6.60
2022-10-15T16:17:54.352Z,6.73
2022-10-15T16:20:22.060Z,6.67
2022-10-15T16:22:52.707Z,6.80
2022-10-15T16:25:20.457Z,7.00
2022-10-15T16:27:51.868Z,7.00
2022-10-15T16:30:19.571Z,7.47
2022-10-15T16:32:46.656Z,6.53
2022-10-15T16:35:13.781Z,7.37
2022-10-15T16:37:40.902Z,6.90
2022-10-15T16:40:08.410Z,7.43
2022-10-15T16:42:35.792Z,7.43
2022-10-15T16:45:02.871Z,7.73
2022-10-15T16:47:30.061Z,7.83
2022-10-15T16:49:57.179Z,7.30
2022-10-15T16:52:24.586Z,8.63
2022-10-15T16:54:51.821Z,8.13
2022-10-15T16:57:18.885Z,7.87
2022-10-15T16:59:45.954Z,8.10
2022-10-15T17:02:13.104Z,8.40
2022-10-15T17:04:40.207Z,8.57
2022-10-15T17:07:07.307Z,8.07
2022-10-15T17:09:34.414Z,8.70
2022-10-15T17:12:01.502Z,9.27
2022-10-15T17:14:28.917Z,9.43
2022-10-15T17:16:56.261Z,8.73
2022-10-15T17:19:27.819Z,9.27
2022-10-15T17:21:57.783Z,8.83
2022-10-15T17:24:24.889Z,9.70
2022-10-15T17:26:52.265Z,9.60
2022-10-15T17:29:20.743Z,9.63
2022-10-15T17:31:48.723Z,9.00
2022-10-15T17:34:16.234Z,9.53
2022-10-15T17:36:45.553Z,9.07
2022-10-15T17:39:13.587Z,9.13
2022-10-15T17:41:40.768Z,9.07
2022-10-15T17:44:07.944Z,8.80
2022-10-15T17:46:35.066Z,8.23
2022-10-15T17:49:03.478Z,8.33
2022-10-15T17:51:31.562Z,8.57
2022-10-15T17:53:59.314Z,8.30
2022-10-15T17:56:30.907Z,8.87
2022-10-15T17:58:58.597Z,8.70
2022-10-15T18:01:39.110Z,9.07
2022-10-15T18:04:07.071Z,8.73
2022-10-15T18:06:34.190Z,9.33
2022-10-15T18:09:01.289Z,8.80
2022-10-15T18:11:30.449Z,10.03
2022-10-15T18:13:57.513Z,9.73
2022-10-15T18:16:24.701Z,10.03
2022-10-15T18:18:53.105Z,9.83
2022-10-15T18:21:20.801Z,9.73
2022-10-15T18:23:48.157Z,9.23
2022-10-15T18:26:19.610Z,10.93
2022-10-15T18:28:48.345Z,11.00
2022-10-15T18:31:15.899Z,10.27
2022-10-15T18:33:48.682Z,9.93
2022-10-15T18:36:17.639Z,10.30
2022-10-15T18:38:44.920Z,10.90
2022-10-15T18:41:30.625Z,10.43
2022-10-15T18:43:58.898Z,9.97
2022-10-15T18:46:27.514Z,10.20
2022-10-15T18:48:55.189Z,10.57
2022-10-15T18:51:22.265Z,11.47
2022-10-15T18:53:49.357Z,12.17
2022-10-15T18:56:16.438Z,11.00
2022-10-15T18:58:43.549Z,11.23
2022-10-15T19:01:10.735Z,11.17
2022-10-15T19:03:37.872Z,12.03
2022-10-15T19:06:05.044Z,12.23
2022-10-15T19:08:32.166Z,12.20
2022-10-15T19:11:06.919Z,12.40
2022-10-15T19:13:34.007Z,12.10
2022-10-15T19:16:04.830Z,13.13
2022-10-15T19:18:32.418Z,12.67
2022-10-15T19:20:59.637Z,13.87
2022-10-15T19:23:26.809Z,13.83
2022-10-15T19:25:53.896Z,13.77
2022-10-15T19:28:21.056Z,14.20
2022-10-15T19:30:58.032Z,14.17
2022-10-15T19:33:26.114Z,13.80
2022-10-15T19:35:53.571Z,20.97
2022-10-15T19:38:20.727Z,15.20
2022-10-15T19:40:50.139Z,14.83
2022-10-15T19:43:18.695Z,14.60
2022-10-15T19:45:46.016Z,15.47
2022-10-15T19:48:14.579Z,15.87
2022-10-15T19:50:42.595Z,16.10
2022-10-15T19:53:11.670Z,15.97
2022-10-15T19:55:39.374Z,15.90
2022-10-15T19:58:06.756Z,15.50
2022-10-15T20:00:33.914Z,16.10
2022-10-15T20:03:00.995Z,16.23
2022-10-15T20:05:28.167Z,15.57
2022-10-15T20:07:55.257Z,16.30
2022-10-15T20:10:25.740Z,16.30
2022-10-15T20:12:53.688Z,15.00
2022-10-15T20:15:21.054Z,16.33
2022-10-15T20:17:48.477Z,15.07
2022-10-15T20:20:15.879Z,15.33
2022-10-15T20:22:43.048Z,14.37
2022-10-15T20:25:11.791Z,14.53
2022-10-15T20:27:38.966Z,14.83
2022-10-15T20:30:06.311Z,14.20
2022-10-15T20:32:35.993Z,14.00
2022-10-15T20:35:03.708Z,14.03
2022-10-15T20:37:30.847Z,14.77
2022-10-15T20:39:59.530Z,14.00
2022-10-15T20:42:27.012Z,13.70
2022-10-15T20:44:54.343Z,13.33
2022-10-15T20:47:21.911Z,13.23
2022-10-15T20:49:50.976Z,12.20
2022-10-15T20:52:18.178Z,11.67
2022-10-15T20:54:45.270Z,11.57
2022-10-15T20:57:12.711Z,12.00
2022-10-15T20:59:39.765Z,12.00
2022-10-15T21:02:06.860Z,12.13
2022-10-15T21:04:34.043Z,12.67
2022-10-15T21:07:01.120Z,11.23
2022-10-15T21:09:30.705Z,11.90
2022-10-15T21:11:57.800Z,11.60
2022-10-15T21:14:24.963Z,11.47
2022-10-15T21:16:52.135Z,12.53
2022-10-15T21:19:19.289Z,12.30
2022-10-15T21:21:46.416Z,12.97
2022-10-15T21:24:14.751Z,12.33
2022-10-15T21:26:41.872Z,11.47
2022-10-15T21:29:16.299Z,10.37
2022-10-15T21:31:44.286Z,9.83
2022-10-15T21:34:11.396Z,10.70
2022-10-15T21:36:38.488Z,11.33
2022-10-15T21:39:07.017Z,10.13
2022-10-15T21:41:35.230Z,11.00
2022-10-15T21:44:03.116Z,11.13
2022-10-15T21:46:31.310Z,10.83
2022-10-15T21:48:58.692Z,10.63
2022-10-15T21:51:30.686Z,10.60
2022-10-15T21:53:58.553Z,10.37
2022-10-15T21:56:26.016Z,10.73
2022-10-15T21:58:54.424Z,9.60
2022-10-15T22:01:25.906Z,10.17
2022-10-15T22:03:54.192Z,10.57
2022-10-15T22:06:21.584Z,10.17
2022-10-15T22:08:48.943Z,10.67
2022-10-15T22:11:20.868Z,11.07
2022-10-15T22:13:49.169Z,10.73
2022-10-15T22:16:17.087Z,9.60
2022-10-15T22:18:44.648Z,11.10
2022-10-15T22:21:16.600Z,10.80
2022-10-15T22:23:44.898Z,10.47
2022-10-15T22:26:12.934Z,10.57
2022-10-15T22:28:40.383Z,12.53
2022-10-15T22:31:09.300Z,12.00
2022-10-15T22:33:36.442Z,12.23
2022-10-15T22:36:07.632Z,12.10
2022-10-15T22:38:34.708Z,13.17
2022-10-15T22:41:03.045Z,13.63
2022-10-15T22:43:30.130Z,13.40
2022-10-15T22:45:59.727Z,14.30
2022-10-15T22:48:27.037Z,13.90
2022-10-15T22:50:57.545Z,13.03
2022-10-15T22:53:24.722Z,12.40
2022-10-15T22:55:58.663Z,13.23
2022-10-15T22:58:27.040Z,12.47
2022-10-15T23:00:54.538Z,11.23
2022-10-15T23:03:21.791Z,10.30
2022-10-15T23:05:55.559Z,10.60
2022-10-15T23:08:23.091Z,10.27
2022-10-15T23:10:50.260Z,10.43
2022-10-15T23:13:17.331Z,11.53
2022-10-15T23:15:44.413Z,12.10
2022-10-15T23:18:11.629Z,13.30
2022-10-15T23:20:38.947Z,14.20
2022-10-15T23:23:06.588Z,13.93
2022-10-15T23:25:37.725Z,14.20
2022-10-15T23:28:04.958Z,15.10
2022-10-15T23:30:32.136Z,14.70
2022-10-15T23:32:59.203Z,14.20
2022-10-15T23:35:26.366Z,12.07
2022-10-15T23:37:53.530Z,14.07
2022-10-15T23:40:20.615Z,13.40
2022-10-15T23:42:47.706Z,12.60
2022-10-15T23:45:14.783Z,11.90
2022-10-15T23:47:41.925Z,11.50
2022-10-15T23:50:09.185Z,10.23
2022-10-15T23:52:36.795Z,9.33
2022-10-15T23:55:03.954Z,8.20
2022-10-15T23:57:31.037Z,7.30
2022-10-15T23:59:58.854Z,6.97
